sensor_id;sensor_type;location;lat;lon;timestamp;temperature;humidity
3566;DHT22;1797;51.844;7.684;2023-05-01T00:01:23;8.90;67.60
3566;DHT22;1797;51.844;7.684;2023-05-01T00:03:48;8.80;75.20
3566;DHT22;1797;51.844;7.684;2023-05-01T00:06:14;8.80;89.50
3566;DHT22;1797;51.844;7.684;2023-05-01T00:08:40;8.80;83.80
3566;DHT22;1797;51.844;7.684;2023-05-01T00:11:05;8.70;40.30
3566;DHT22;1797;51.844;7.684;2023-05-01T00:13:35;8.70;15.00
3566;DHT22;1797;51.844;7.684;2023-05-01T00:16:01;8.70;1.00
3566;DHT22;1797;51.844;7.684;2023-05-01T00:18:29;8.70;1.00
3566;DHT22;1797;51.844;7.684;2023-05-01T00:20:54;8.70;1.00
3566;DHT22;1797;51.844;7.684;2023-05-01T00:23:20;8.70;1.00
3566;DHT22;1797;51.844;7.684;2023-05-01T00:25:46;8.70;1.00
3566;DHT22;1797;51.844;7.684;2023-05-01T00:28:11;8.70;1.00
3566;DHT22;1797;51.844;7.684;2023-05-01T00:30:37;8.70;1.00
3566;DHT22;1797;51.844;7.684;2023-05-01T00:33:03;8.70;1.00
3566;DHT22;1797;51.844;7.684;2023-05-01T00:35:29;8.70;1.00
3566;DHT22;1797;51.844;7.684;2023-05-01T00:37:55;8.60;1.00
3566;DHT22;1797;51.844;7.684;2023-05-01T00:40:20;9.30;1.00
3566;DHT22;1797;51.844;7.684;2023-05-01T00:42:47;8.70;1.00
3566;DHT22;1797;51.844;7.684;2023-05-01T00:45:12;8.70;1.00
3566;DHT22;1797;51.844;7.684;2023-05-01T00:47:38;8.70;1.00
3566;DHT22;1797;51.844;7.684;2023-05-01T00:50:06;8.60;1.00
3566;DHT22;1797;51.844;7.684;2023-05-01T00:52:32;8.60;1.00
3566;DHT22;1797;51.844;7.684;2023-05-01T00:54:58;8.50;1.00
3566;DHT22;1797;51.844;7.684;2023-05-01T00:57:24;8.50;1.00
3566;DHT22;1797;51.844;7.684;2023-05-01T00:59:49;8.40;1.00
3566;DHT22;1797;51.844;7.684;2023-05-01T01:02:15;8.40;1.00
3566;DHT22;1797;51.844;7.684;2023-05-01T01:04:42;8.40;35.70
3566;DHT22;1797;51.844;7.684;2023-05-01T01:15:30;8.10;99.90
3566;DHT22;1797;51.844;7.684;2023-05-01T01:32:05;7.80;99.90
3566;DHT22;1797;51.844;7.684;2023-05-01T01:34:43;7.80;99.90
3566;DHT22;1797;51.844;7.684;2023-05-01T01:37:19;7.80;99.90
3566;DHT22;1797;51.844;7.684;2023-05-01T01:39:52;7.80;99.90
3566;DHT22;1797;51.844;7.684;2023-05-01T01:42:23;7.70;99.90
3566;DHT22;1797;51.844;7.684;2023-05-01T01:44:54;7.60;99.90
3566;DHT22;1797;51.844;7.684;2023-05-01T01:47:24;7.60;99.90
3566;DHT22;1797;51.844;7.684;2023-05-01T01:49:54;7.60;99.90
3566;DHT22;1797;51.844;7.684;2023-05-01T01:52:21;7.60;99.90
3566;DHT22;1797;51.844;7.684;2023-05-01T01:54:52;7.50;99.90
3566;DHT22;1797;51.844;7.684;2023-05-01T01:57:20;7.40;99.90
3566;DHT22;1797;51.844;7.684;2023-05-01T01:59:46;7.40;1.00
3566;DHT22;1797;51.844;7.684;2023-05-01T02:02:15;7.30;1.00
3566;DHT22;1797;51.844;7.684;2023-05-01T02:04:42;7.30;1.00
3566;DHT22;1797;51.844;7.684;2023-05-01T02:07:09;7.30;1.00
3566;DHT22;1797;51.844;7.684;2023-05-01T02:09:36;7.20;1.00
3566;DHT22;1797;51.844;7.684;2023-05-01T02:12:07;7.10;1.00
3566;DHT22;1797;51.844;7.684;2023-05-01T02:14:33;7.10;1.00
3566;DHT22;1797;51.844;7.684;2023-05-01T02:17:00;7.10;1.00
3566;DHT22;1797;51.844;7.684;2023-05-01T02:19:27;7.00;1.00
3566;DHT22;1797;51.844;7.684;2023-05-01T02:21:54;7.00;1.00
3566;DHT22;1797;51.844;7.684;2023-05-01T02:24:21;7.00;1.00
3566;DHT22;1797;51.844;7.684;2023-05-01T02:26:53;7.00;1.00
3566;DHT22;1797;51.844;7.684;2023-05-01T02:29:19;6.90;99.90
3566;DHT22;1797;51.844;7.684;2023-05-01T02:31:45;6.90;1.00
3566;DHT22;1797;51.844;7.684;2023-05-01T02:34:10;6.80;99.90
3566;DHT22;1797;51.844;7.684;2023-05-01T02:36:36;6.90;99.90
3566;DHT22;1797;51.844;7.684;2023-05-01T02:39:02;6.90;99.90
3566;DHT22;1797;51.844;7.684;2023-05-01T02:41:29;6.90;99.90
3566;DHT22;1797;51.844;7.684;2023-05-01T02:44:01;6.80;99.90
3566;DHT22;1797;51.844;7.684;2023-05-01T02:46:30;6.90;99.90
3566;DHT22;1797;51.844;7.684;2023-05-01T02:49:00;6.90;99.90
3566;DHT22;1797;51.844;7.684;2023-05-01T02:51:27;6.90;99.90
3566;DHT22;1797;51.844;7.684;2023-05-01T02:53:54;6.80;99.90
3566;DHT22;1797;51.844;7.684;2023-05-01T02:56:20;6.80;99.90
3566;DHT22;1797;51.844;7.684;2023-05-01T02:58:47;6.70;99.90
3566;DHT22;1797;51.844;7.684;2023-05-01T03:01:13;6.70;1.00
3566;DHT22;1797;51.844;7.684;2023-05-01T03:03:39;6.60;1.00
3566;DHT22;1797;51.844;7.684;2023-05-01T03:06:04;6.60;1.00
3566;DHT22;1797;51.844;7.684;2023-05-01T03:08:30;6.60;1.00
3566;DHT22;1797;51.844;7.684;2023-05-01T03:10:55;6.70;1.00
3566;DHT22;1797;51.844;7.684;2023-05-01T03:13:21;6.70;1.00
3566;DHT22;1797;51.844;7.684;2023-05-01T03:15:47;6.60;1.00
3566;DHT22;1797;51.844;7.684;2023-05-01T03:18:13;6.50;1.00
3566;DHT22;1797;51.844;7.684;2023-05-01T03:20:38;6.50;1.00
3566;DHT22;1797;51.844;7.684;2023-05-01T03:23:04;6.50;1.00
3566;DHT22;1797;51.844;7.684;2023-05-01T03:25:31;6.50;1.00
3566;DHT22;1797;51.844;7.684;2023-05-01T03:27:56;6.40;1.00
3566;DHT22;1797;51.844;7.684;2023-05-01T03:30:22;6.40;1.00
3566;DHT22;1797;51.844;7.684;2023-05-01T03:32:48;6.40;1.00
3566;DHT22;1797;51.844;7.684;2023-05-01T03:35:13;6.30;1.00
3566;DHT22;1797;51.844;7.684;2023-05-01T03:37:39;6.30;1.00
3566;DHT22;1797;51.844;7.684;2023-05-01T03:40:05;6.30;1.00
3566;DHT22;1797;51.844;7.684;2023-05-01T03:42:31;6.30;1.00
3566;DHT22;1797;51.844;7.684;2023-05-01T03:44:56;6.40;1.00
3566;DHT22;1797;51.844;7.684;2023-05-01T03:47:22;6.40;1.00
3566;DHT22;1797;51.844;7.684;2023-05-01T03:49:47;6.50;1.00
3566;DHT22;1797;51.844;7.684;2023-05-01T03:52:13;6.50;1.00
3566;DHT22;1797;51.844;7.684;2023-05-01T03:54:39;6.50;1.00
3566;DHT22;1797;51.844;7.684;2023-05-01T03:57:04;6.50;1.00
3566;DHT22;1797;51.844;7.684;2023-05-01T03:59:30;6.60;1.00
3566;DHT22;1797;51.844;7.684;2023-05-01T04:01:56;6.60;1.00
3566;DHT22;1797;51.844;7.684;2023-05-01T04:04:21;6.60;1.00
3566;DHT22;1797;51.844;7.684;2023-05-01T04:06:47;6.70;1.00
3566;DHT22;1797;51.844;7.684;2023-05-01T04:09:14;6.80;1.00
3566;DHT22;1797;51.844;7.684;2023-05-01T04:11:40;6.80;1.00
3566;DHT22;1797;51.844;7.684;2023-05-01T04:14:05;6.80;1.00
3566;DHT22;1797;51.844;7.684;2023-05-01T04:16:31;6.80;1.00
3566;DHT22;1797;51.844;7.684;2023-05-01T04:18:57;6.80;1.00
3566;DHT22;1797;51.844;7.684;2023-05-01T04:21:23;6.80;1.00
3566;DHT22;1797;51.844;7.684;2023-05-01T04:23:48;6.80;1.00
3566;DHT22;1797;51.844;7.684;2023-05-01T04:26:14;6.90;1.00
3566;DHT22;1797;51.844;7.684;2023-05-01T04:28:40;6.90;1.00
3566;DHT22;1797;51.844;7.684;2023-05-01T04:31:06;6.90;1.00
3566;DHT22;1797;51.844;7.684;2023-05-01T04:33:31;6.90;1.00
3566;DHT22;1797;51.844;7.684;2023-05-01T04:35:57;6.90;1.00
3566;DHT22;1797;51.844;7.684;2023-05-01T04:38:22;6.90;1.00
3566;DHT22;1797;51.844;7.684;2023-05-01T04:40:48;6.90;1.00
3566;DHT22;1797;51.844;7.684;2023-05-01T04:43:14;6.90;1.00
3566;DHT22;1797;51.844;7.684;2023-05-01T04:45:39;7.00;1.00
3566;DHT22;1797;51.844;7.684;2023-05-01T04:48:05;7.00;1.00
3566;DHT22;1797;51.844;7.684;2023-05-01T04:50:31;7.00;1.00
3566;DHT22;1797;51.844;7.684;2023-05-01T04:52:56;7.10;1.00
3566;DHT22;1797;51.844;7.684;2023-05-01T04:55:23;7.10;1.00
3566;DHT22;1797;51.844;7.684;2023-05-01T04:57:49;7.20;99.90
3566;DHT22;1797;51.844;7.684;2023-05-01T05:00:15;7.20;99.90
3566;DHT22;1797;51.844;7.684;2023-05-01T05:02:43;7.30;99.90
3566;DHT22;1797;51.844;7.684;2023-05-01T05:05:09;7.30;99.90
3566;DHT22;1797;51.844;7.684;2023-05-01T05:07:35;7.40;99.90
3566;DHT22;1797;51.844;7.684;2023-05-01T05:10:00;7.40;99.90
3566;DHT22;1797;51.844;7.684;2023-05-01T05:12:26;7.50;99.90
3566;DHT22;1797;51.844;7.684;2023-05-01T05:14:51;7.60;99.90
3566;DHT22;1797;51.844;7.684;2023-05-01T05:17:17;7.70;99.90
3566;DHT22;1797;51.844;7.684;2023-05-01T05:19:43;7.70;99.90
3566;DHT22;1797;51.844;7.684;2023-05-01T05:22:08;7.80;99.90
3566;DHT22;1797;51.844;7.684;2023-05-01T05:24:36;7.80;99.90
3566;DHT22;1797;51.844;7.684;2023-05-01T05:27:02;7.80;99.90
3566;DHT22;1797;51.844;7.684;2023-05-01T05:29:28;7.90;99.90
3566;DHT22;1797;51.844;7.684;2023-05-01T05:31:54;8.00;99.90
3566;DHT22;1797;51.844;7.684;2023-05-01T05:34:21;8.00;99.90
3566;DHT22;1797;51.844;7.684;2023-05-01T05:36:47;8.10;99.90
3566;DHT22;1797;51.844;7.684;2023-05-01T05:39:13;8.10;99.90
3566;DHT22;1797;51.844;7.684;2023-05-01T05:41:38;8.30;99.90
3566;DHT22;1797;51.844;7.684;2023-05-01T05:44:04;8.30;99.90
3566;DHT22;1797;51.844;7.684;2023-05-01T05:46:30;8.40;99.90
3566;DHT22;1797;51.844;7.684;2023-05-01T05:48:55;8.50;99.90
3566;DHT22;1797;51.844;7.684;2023-05-01T05:51:21;8.50;99.90
3566;DHT22;1797;51.844;7.684;2023-05-01T05:53:47;8.60;99.90
3566;DHT22;1797;51.844;7.684;2023-05-01T05:56:12;8.70;99.90
3566;DHT22;1797;51.844;7.684;2023-05-01T05:58:38;8.90;92.90
3566;DHT22;1797;51.844;7.684;2023-05-01T06:01:04;8.90;92.20
3566;DHT22;1797;51.844;7.684;2023-05-01T06:03:31;9.00;99.00
3566;DHT22;1797;51.844;7.684;2023-05-01T06:05:56;9.10;99.90
3566;DHT22;1797;51.844;7.684;2023-05-01T06:08:22;9.30;69.90
3566;DHT22;1797;51.844;7.684;2023-05-01T06:10:47;9.40;52.90
3566;DHT22;1797;51.844;7.684;2023-05-01T06:13:13;9.60;17.30
3566;DHT22;1797;51.844;7.684;2023-05-01T06:15:39;9.60;1.00
3566;DHT22;1797;51.844;7.684;2023-05-01T06:18:05;9.80;1.00
3566;DHT22;1797;51.844;7.684;2023-05-01T06:20:31;9.80;1.00
3566;DHT22;1797;51.844;7.684;2023-05-01T06:22:57;10.00;1.00
3566;DHT22;1797;51.844;7.684;2023-05-01T06:25:23;10.10;1.00
3566;DHT22;1797;51.844;7.684;2023-05-01T06:27:50;10.20;1.00
3566;DHT22;1797;51.844;7.684;2023-05-01T06:30:16;10.50;1.00
3566;DHT22;1797;51.844;7.684;2023-05-01T06:32:44;10.40;1.00
3566;DHT22;1797;51.844;7.684;2023-05-01T06:35:11;10.60;1.00
3566;DHT22;1797;51.844;7.684;2023-05-01T06:37:36;10.70;1.00
3566;DHT22;1797;51.844;7.684;2023-05-01T06:40:04;10.80;1.00
3566;DHT22;1797;51.844;7.684;2023-05-01T06:42:30;10.90;1.00
3566;DHT22;1797;51.844;7.684;2023-05-01T06:44:55;11.00;1.00
3566;DHT22;1797;51.844;7.684;2023-05-01T06:47:21;11.20;1.00
3566;DHT22;1797;51.844;7.684;2023-05-01T06:49:46;11.30;1.00
3566;DHT22;1797;51.844;7.684;2023-05-01T06:52:12;11.40;1.00
3566;DHT22;1797;51.844;7.684;2023-05-01T06:54:38;11.50;1.00
3566;DHT22;1797;51.844;7.684;2023-05-01T06:57:03;11.60;1.00
3566;DHT22;1797;51.844;7.684;2023-05-01T06:59:29;11.80;1.00
3566;DHT22;1797;51.844;7.684;2023-05-01T07:01:54;11.90;1.00
3566;DHT22;1797;51.844;7.684;2023-05-01T07:04:20;12.10;1.00
3566;DHT22;1797;51.844;7.684;2023-05-01T07:06:45;12.20;1.00
3566;DHT22;1797;51.844;7.684;2023-05-01T07:09:11;12.40;1.00
3566;DHT22;1797;51.844;7.684;2023-05-01T07:11:38;12.50;1.00
3566;DHT22;1797;51.844;7.684;2023-05-01T07:14:03;12.60;1.00
3566;DHT22;1797;51.844;7.684;2023-05-01T07:16:29;12.60;1.00
3566;DHT22;1797;51.844;7.684;2023-05-01T07:18:55;12.70;1.00
3566;DHT22;1797;51.844;7.684;2023-05-01T07:21:21;12.80;1.00
3566;DHT22;1797;51.844;7.684;2023-05-01T07:23:47;12.80;1.00
3566;DHT22;1797;51.844;7.684;2023-05-01T07:26:12;12.90;1.00
3566;DHT22;1797;51.844;7.684;2023-05-01T07:28:38;13.00;1.00
3566;DHT22;1797;51.844;7.684;2023-05-01T07:31:03;13.00;1.00
3566;DHT22;1797;51.844;7.684;2023-05-01T07:33:29;12.90;1.00
3566;DHT22;1797;51.844;7.684;2023-05-01T07:35:55;12.90;1.00
3566;DHT22;1797;51.844;7.684;2023-05-01T07:38:21;13.00;1.00
3566;DHT22;1797;51.844;7.684;2023-05-01T07:40:46;13.00;1.00
3566;DHT22;1797;51.844;7.684;2023-05-01T07:43:12;13.00;1.00
3566;DHT22;1797;51.844;7.684;2023-05-01T07:45:38;13.20;1.00
3566;DHT22;1797;51.844;7.684;2023-05-01T07:48:04;13.60;1.00
3566;DHT22;1797;51.844;7.684;2023-05-01T07:50:30;13.80;1.00
3566;DHT22;1797;51.844;7.684;2023-05-01T07:52:56;14.30;1.00
3566;DHT22;1797;51.844;7.684;2023-05-01T07:55:22;14.50;1.00
3566;DHT22;1797;51.844;7.684;2023-05-01T07:57:48;14.70;1.00
3566;DHT22;1797;51.844;7.684;2023-05-01T08:00:14;15.00;1.00
3566;DHT22;1797;51.844;7.684;2023-05-01T08:02:40;15.10;1.00
3566;DHT22;1797;51.844;7.684;2023-05-01T08:05:06;15.30;1.00
3566;DHT22;1797;51.844;7.684;2023-05-01T08:07:32;15.50;1.00
3566;DHT22;1797;51.844;7.684;2023-05-01T08:09:57;15.70;1.00
3566;DHT22;1797;51.844;7.684;2023-05-01T08:12:25;15.90;1.00
3566;DHT22;1797;51.844;7.684;2023-05-01T08:14:51;16.20;1.00
3566;DHT22;1797;51.844;7.684;2023-05-01T08:17:17;16.40;1.00
3566;DHT22;1797;51.844;7.684;2023-05-01T08:19:42;16.60;1.00
3566;DHT22;1797;51.844;7.684;2023-05-01T08:22:09;16.80;1.00
3566;DHT22;1797;51.844;7.684;2023-05-01T08:24:35;17.10;1.00
3566;DHT22;1797;51.844;7.684;2023-05-01T08:27:01;17.20;1.00
3566;DHT22;1797;51.844;7.684;2023-05-01T08:29:29;17.40;1.00
3566;DHT22;1797;51.844;7.684;2023-05-01T08:31:57;17.60;1.00
3566;DHT22;1797;51.844;7.684;2023-05-01T08:34:22;17.70;1.00
3566;DHT22;1797;51.844;7.684;2023-05-01T08:36:49;17.80;1.00
3566;DHT22;1797;51.844;7.684;2023-05-01T08:39:14;17.80;1.00
3566;DHT22;1797;51.844;7.684;2023-05-01T08:41:44;17.60;99.90
3566;DHT22;1797;51.844;7.684;2023-05-01T08:44:10;17.50;99.90
3566;DHT22;1797;51.844;7.684;2023-05-01T08:46:45;17.60;99.90
3566;DHT22;1797;51.844;7.684;2023-05-01T08:49:15;17.80;99.90
3566;DHT22;1797;51.844;7.684;2023-05-01T08:51:44;18.10;99.90
3566;DHT22;1797;51.844;7.684;2023-05-01T08:54:13;18.20;99.90
3566;DHT22;1797;51.844;7.684;2023-05-01T08:56:41;18.30;99.90
3566;DHT22;1797;51.844;7.684;2023-05-01T08:59:09;18.40;99.90
3566;DHT22;1797;51.844;7.684;2023-05-01T09:01:37;18.50;99.90
3566;DHT22;1797;51.844;7.684;2023-05-01T09:04:03;18.80;99.90
3566;DHT22;1797;51.844;7.684;2023-05-01T09:06:30;18.80;99.90
3566;DHT22;1797;51.844;7.684;2023-05-01T09:08:57;18.90;99.90
3566;DHT22;1797;51.844;7.684;2023-05-01T09:11:24;18.70;99.90
3566;DHT22;1797;51.844;7.684;2023-05-01T09:13:51;18.60;99.90
3566;DHT22;1797;51.844;7.684;2023-05-01T09:16:17;18.50;99.90
3566;DHT22;1797;51.844;7.684;2023-05-01T09:18:42;18.70;99.90
3566;DHT22;1797;51.844;7.684;2023-05-01T09:21:08;18.90;99.90
3566;DHT22;1797;51.844;7.684;2023-05-01T09:23:34;19.10;99.90
3566;DHT22;1797;51.844;7.684;2023-05-01T09:26:05;19.20;99.90
3566;DHT22;1797;51.844;7.684;2023-05-01T09:28:49;19.60;99.90
3566;DHT22;1797;51.844;7.684;2023-05-01T09:31:29;19.90;99.90
3566;DHT22;1797;51.844;7.684;2023-05-01T09:34:03;20.50;99.90
3566;DHT22;1797;51.844;7.684;2023-05-01T09:36:34;20.80;99.90
3566;DHT22;1797;51.844;7.684;2023-05-01T09:39:02;21.00;99.90
3566;DHT22;1797;51.844;7.684;2023-05-01T09:41:29;21.40;99.90
3566;DHT22;1797;51.844;7.684;2023-05-01T09:43:57;21.60;99.90
3566;DHT22;1797;51.844;7.684;2023-05-01T09:46:24;21.90;99.90
3566;DHT22;1797;51.844;7.684;2023-05-01T09:48:55;22.30;99.90
3566;DHT22;1797;51.844;7.684;2023-05-01T09:53:52;22.30;99.90
3566;DHT22;1797;51.844;7.684;2023-05-01T09:56:18;22.10;99.90
3566;DHT22;1797;51.844;7.684;2023-05-01T09:58:45;22.50;99.90
3566;DHT22;1797;51.844;7.684;2023-05-01T10:01:11;22.20;99.90
3566;DHT22;1797;51.844;7.684;2023-05-01T10:03:37;22.20;99.90
3566;DHT22;1797;51.844;7.684;2023-05-01T10:06:03;22.50;99.90
3566;DHT22;1797;51.844;7.684;2023-05-01T10:08:45;23.10;99.90
3566;DHT22;1797;51.844;7.684;2023-05-01T10:11:11;23.60;99.90
3566;DHT22;1797;51.844;7.684;2023-05-01T10:13:37;23.60;99.90
3566;DHT22;1797;51.844;7.684;2023-05-01T10:16:02;23.50;99.90
3566;DHT22;1797;51.844;7.684;2023-05-01T10:18:33;23.30;99.90
3566;DHT22;1797;51.844;7.684;2023-05-01T10:20:59;23.30;99.90
3566;DHT22;1797;51.844;7.684;2023-05-01T10:23:25;22.90;99.90
3566;DHT22;1797;51.844;7.684;2023-05-01T10:25:55;22.80;99.90
3566;DHT22;1797;51.844;7.684;2023-05-01T10:28:21;23.00;99.90
3566;DHT22;1797;51.844;7.684;2023-05-01T10:30:50;22.70;99.90
3566;DHT22;1797;51.844;7.684;2023-05-01T10:33:16;22.80;99.90
3566;DHT22;1797;51.844;7.684;2023-05-01T10:35:47;23.30;99.90
3566;DHT22;1797;51.844;7.684;2023-05-01T10:38:26;23.50;99.90
3566;DHT22;1797;51.844;7.684;2023-05-01T10:40:54;23.60;99.90
3566;DHT22;1797;51.844;7.684;2023-05-01T10:43:25;23.80;99.90
3566;DHT22;1797;51.844;7.684;2023-05-01T10:51:15;24.80;99.90
3566;DHT22;1797;51.844;7.684;2023-05-01T10:53:49;25.20;99.90
3566;DHT22;1797;51.844;7.684;2023-05-01T10:59:04;25.50;99.90
3566;DHT22;1797;51.844;7.684;2023-05-01T11:01:32;26.00;99.90
3566;DHT22;1797;51.844;7.684;2023-05-01T11:12:09;26.10;99.90
3566;DHT22;1797;51.844;7.684;2023-05-01T11:20:50;25.50;99.90
3566;DHT22;1797;51.844;7.684;2023-05-01T11:22:52;25.40;99.90
3566;DHT22;1797;51.844;7.684;2023-05-01T11:25:35;25.10;99.90
3566;DHT22;1797;51.844;7.684;2023-05-01T11:28:02;25.40;99.90
3566;DHT22;1797;51.844;7.684;2023-05-01T11:30:40;25.30;99.90
3566;DHT22;1797;51.844;7.684;2023-05-01T11:33:06;25.00;99.90
3566;DHT22;1797;51.844;7.684;2023-05-01T11:35:32;24.70;99.90
3566;DHT22;1797;51.844;7.684;2023-05-01T11:37:58;24.60;99.90
3566;DHT22;1797;51.844;7.684;2023-05-01T11:40:29;24.50;99.90
3566;DHT22;1797;51.844;7.684;2023-05-01T11:43:04;24.50;99.90
3566;DHT22;1797;51.844;7.684;2023-05-01T11:45:31;24.40;99.90
3566;DHT22;1797;51.844;7.684;2023-05-01T11:47:57;24.30;99.90
3566;DHT22;1797;51.844;7.684;2023-05-01T11:50:34;24.20;99.90
3566;DHT22;1797;51.844;7.684;2023-05-01T11:53:00;24.30;99.90
3566;DHT22;1797;51.844;7.684;2023-05-01T11:55:33;24.50;99.90
3566;DHT22;1797;51.844;7.684;2023-05-01T11:58:00;24.80;99.90
3566;DHT22;1797;51.844;7.684;2023-05-01T12:00:28;24.70;99.90
3566;DHT22;1797;51.844;7.684;2023-05-01T12:02:55;24.70;99.90
3566;DHT22;1797;51.844;7.684;2023-05-01T12:05:25;24.60;99.90
3566;DHT22;1797;51.844;7.684;2023-05-01T12:08:08;24.40;99.90
3566;DHT22;1797;51.844;7.684;2023-05-01T12:10:35;24.10;99.90
3566;DHT22;1797;51.844;7.684;2023-05-01T12:13:04;24.00;99.90
3566;DHT22;1797;51.844;7.684;2023-05-01T12:15:31;24.00;99.90
3566;DHT22;1797;51.844;7.684;2023-05-01T12:17:59;23.90;99.90
3566;DHT22;1797;51.844;7.684;2023-05-01T12:20:44;23.80;99.90
3566;DHT22;1797;51.844;7.684;2023-05-01T12:23:12;23.60;99.90
3566;DHT22;1797;51.844;7.684;2023-05-01T12:25:40;23.50;99.90
3566;DHT22;1797;51.844;7.684;2023-05-01T12:28:09;23.40;99.90
3566;DHT22;1797;51.844;7.684;2023-05-01T12:30:36;23.10;99.90
3566;DHT22;1797;51.844;7.684;2023-05-01T12:33:22;22.90;99.90
3566;DHT22;1797;51.844;7.684;2023-05-01T12:35:49;22.80;99.90
3566;DHT22;1797;51.844;7.684;2023-05-01T12:38:16;22.80;99.90
3566;DHT22;1797;51.844;7.684;2023-05-01T12:40:50;22.90;99.90
3566;DHT22;1797;51.844;7.684;2023-05-01T12:43:36;23.00;99.90
3566;DHT22;1797;51.844;7.684;2023-05-01T12:46:03;23.40;99.90
3566;DHT22;1797;51.844;7.684;2023-05-01T12:48:30;23.40;99.90
3566;DHT22;1797;51.844;7.684;2023-05-01T12:50:57;23.10;99.90
3566;DHT22;1797;51.844;7.684;2023-05-01T12:53:25;23.10;99.90
3566;DHT22;1797;51.844;7.684;2023-05-01T12:55:53;23.00;99.90
3566;DHT22;1797;51.844;7.684;2023-05-01T12:58:19;23.00;99.90
3566;DHT22;1797;51.844;7.684;2023-05-01T13:00:49;22.90;99.90
3566;DHT22;1797;51.844;7.684;2023-05-01T13:03:22;22.60;99.90
3566;DHT22;1797;51.844;7.684;2023-05-01T13:05:58;23.00;99.90
3566;DHT22;1797;51.844;7.684;2023-05-01T13:08:32;23.10;99.90
3566;DHT22;1797;51.844;7.684;2023-05-01T13:11:00;23.40;99.90
3566;DHT22;1797;51.844;7.684;2023-05-01T13:13:30;23.80;99.90
3566;DHT22;1797;51.844;7.684;2023-05-01T13:16:03;24.20;99.90
3566;DHT22;1797;51.844;7.684;2023-05-01T13:18:31;24.40;99.90
3566;DHT22;1797;51.844;7.684;2023-05-01T13:21:06;24.80;99.90
3566;DHT22;1797;51.844;7.684;2023-05-01T13:23:32;25.40;99.90
3566;DHT22;1797;51.844;7.684;2023-05-01T13:25:57;25.70;99.90
3566;DHT22;1797;51.844;7.684;2023-05-01T13:28:23;26.20;99.90
3566;DHT22;1797;51.844;7.684;2023-05-01T13:30:49;26.10;99.90
3566;DHT22;1797;51.844;7.684;2023-05-01T13:33:15;26.00;99.90
3566;DHT22;1797;51.844;7.684;2023-05-01T13:35:40;26.00;99.90
3566;DHT22;1797;51.844;7.684;2023-05-01T13:38:09;26.10;99.90
3566;DHT22;1797;51.844;7.684;2023-05-01T13:40:37;26.20;99.90
3566;DHT22;1797;51.844;7.684;2023-05-01T13:43:04;26.20;99.90
3566;DHT22;1797;51.844;7.684;2023-05-01T13:45:29;25.50;99.90
3566;DHT22;1797;51.844;7.684;2023-05-01T13:47:55;24.70;99.90
3566;DHT22;1797;51.844;7.684;2023-05-01T13:50:20;24.20;99.90
3566;DHT22;1797;51.844;7.684;2023-05-01T13:52:46;23.70;99.90
3566;DHT22;1797;51.844;7.684;2023-05-01T13:55:13;23.50;99.90
3566;DHT22;1797;51.844;7.684;2023-05-01T13:57:39;23.10;99.90
3566;DHT22;1797;51.844;7.684;2023-05-01T14:00:13;22.90;99.90
3566;DHT22;1797;51.844;7.684;2023-05-01T14:02:43;22.60;99.90
3566;DHT22;1797;51.844;7.684;2023-05-01T14:05:09;22.40;99.90
3566;DHT22;1797;51.844;7.684;2023-05-01T14:07:43;22.30;99.90
3566;DHT22;1797;51.844;7.684;2023-05-01T14:10:09;22.10;99.90
3566;DHT22;1797;51.844;7.684;2023-05-01T14:12:37;21.90;99.90
3566;DHT22;1797;51.844;7.684;2023-05-01T14:15:08;21.80;99.90
3566;DHT22;1797;51.844;7.684;2023-05-01T14:17:35;21.80;99.90
3566;DHT22;1797;51.844;7.684;2023-05-01T14:20:03;21.70;99.90
3566;DHT22;1797;51.844;7.684;2023-05-01T14:22:45;21.50;99.90
3566;DHT22;1797;51.844;7.684;2023-05-01T14:25:28;21.50;99.90
3566;DHT22;1797;51.844;7.684;2023-05-01T14:27:57;21.30;99.90
3566;DHT22;1797;51.844;7.684;2023-05-01T14:30:28;21.20;99.90
3566;DHT22;1797;51.844;7.684;2023-05-01T14:32:54;21.00;99.90
3566;DHT22;1797;51.844;7.684;2023-05-01T14:35:22;20.90;99.90
3566;DHT22;1797;51.844;7.684;2023-05-01T14:37:48;20.90;99.90
3566;DHT22;1797;51.844;7.684;2023-05-01T14:40:13;20.90;99.90
3566;DHT22;1797;51.844;7.684;2023-05-01T14:42:42;20.90;99.90
3566;DHT22;1797;51.844;7.684;2023-05-01T14:45:13;21.00;99.90
3566;DHT22;1797;51.844;7.684;2023-05-01T14:47:43;21.10;99.90
3566;DHT22;1797;51.844;7.684;2023-05-01T14:50:11;21.10;99.90
3566;DHT22;1797;51.844;7.684;2023-05-01T14:52:39;21.00;99.90
3566;DHT22;1797;51.844;7.684;2023-05-01T14:55:05;21.20;99.90
3566;DHT22;1797;51.844;7.684;2023-05-01T14:57:32;21.20;99.90
3566;DHT22;1797;51.844;7.684;2023-05-01T14:59:57;21.20;99.90
3566;DHT22;1797;51.844;7.684;2023-05-01T15:02:23;21.10;99.90
3566;DHT22;1797;51.844;7.684;2023-05-01T15:04:48;21.10;99.90
3566;DHT22;1797;51.844;7.684;2023-05-01T15:07:14;21.00;99.90
3566;DHT22;1797;51.844;7.684;2023-05-01T15:09:43;21.10;99.90
3566;DHT22;1797;51.844;7.684;2023-05-01T15:12:10;21.00;99.90
3566;DHT22;1797;51.844;7.684;2023-05-01T15:14:36;20.90;99.90
3566;DHT22;1797;51.844;7.684;2023-05-01T15:17:02;20.90;99.90
3566;DHT22;1797;51.844;7.684;2023-05-01T15:19:27;20.90;99.90
3566;DHT22;1797;51.844;7.684;2023-05-01T15:21:53;20.90;99.90
3566;DHT22;1797;51.844;7.684;2023-05-01T15:24:18;21.00;99.90
3566;DHT22;1797;51.844;7.684;2023-05-01T15:26:44;21.10;99.90
3566;DHT22;1797;51.844;7.684;2023-05-01T15:29:10;20.90;99.90
3566;DHT22;1797;51.844;7.684;2023-05-01T15:31:36;20.80;99.90
3566;DHT22;1797;51.844;7.684;2023-05-01T15:34:01;20.80;99.90
3566;DHT22;1797;51.844;7.684;2023-05-01T15:36:27;20.90;99.90
3566;DHT22;1797;51.844;7.684;2023-05-01T15:38:53;20.80;99.90
3566;DHT22;1797;51.844;7.684;2023-05-01T15:41:18;20.90;99.90
3566;DHT22;1797;51.844;7.684;2023-05-01T15:43:44;20.80;99.90
3566;DHT22;1797;51.844;7.684;2023-05-01T15:46:09;20.70;99.90
3566;DHT22;1797;51.844;7.684;2023-05-01T15:48:35;20.50;99.90
3566;DHT22;1797;51.844;7.684;2023-05-01T15:51:01;20.30;99.90
3566;DHT22;1797;51.844;7.684;2023-05-01T15:53:28;20.30;99.90
3566;DHT22;1797;51.844;7.684;2023-05-01T15:55:57;20.30;99.90
3566;DHT22;1797;51.844;7.684;2023-05-01T15:58:23;20.30;99.90
3566;DHT22;1797;51.844;7.684;2023-05-01T16:00:48;20.10;99.90
3566;DHT22;1797;51.844;7.684;2023-05-01T16:03:14;20.00;99.90
3566;DHT22;1797;51.844;7.684;2023-05-01T16:05:43;20.00;99.90
3566;DHT22;1797;51.844;7.684;2023-05-01T16:08:10;20.00;99.90
3566;DHT22;1797;51.844;7.684;2023-05-01T16:10:35;20.00;99.90
3566;DHT22;1797;51.844;7.684;2023-05-01T16:13:04;20.00;99.90
3566;DHT22;1797;51.844;7.684;2023-05-01T16:15:31;19.90;99.90
3566;DHT22;1797;51.844;7.684;2023-05-01T16:17:56;19.90;99.90
3566;DHT22;1797;51.844;7.684;2023-05-01T16:20:22;19.80;99.90
3566;DHT22;1797;51.844;7.684;2023-05-01T16:22:48;19.70;99.90
3566;DHT22;1797;51.844;7.684;2023-05-01T16:25:14;19.60;99.90
3566;DHT22;1797;51.844;7.684;2023-05-01T16:27:40;19.50;99.90
3566;DHT22;1797;51.844;7.684;2023-05-01T16:30:09;19.40;99.90
3566;DHT22;1797;51.844;7.684;2023-05-01T16:32:35;19.30;99.90
3566;DHT22;1797;51.844;7.684;2023-05-01T16:35:02;19.30;99.90
3566;DHT22;1797;51.844;7.684;2023-05-01T16:37:29;19.20;99.90
3566;DHT22;1797;51.844;7.684;2023-05-01T16:39:57;19.10;99.90
3566;DHT22;1797;51.844;7.684;2023-05-01T16:42:23;18.80;99.90
3566;DHT22;1797;51.844;7.684;2023-05-01T16:44:48;18.60;99.90
3566;DHT22;1797;51.844;7.684;2023-05-01T16:47:14;18.40;99.90
3566;DHT22;1797;51.844;7.684;2023-05-01T16:49:40;18.20;99.90
3566;DHT22;1797;51.844;7.684;2023-05-01T16:52:07;18.10;99.90
3566;DHT22;1797;51.844;7.684;2023-05-01T16:54:35;17.90;99.90
3566;DHT22;1797;51.844;7.684;2023-05-01T16:57:01;17.80;99.90
3566;DHT22;1797;51.844;7.684;2023-05-01T16:59:27;17.30;99.90
3566;DHT22;1797;51.844;7.684;2023-05-01T17:01:53;16.90;1.00